Maersk Danang — A8PS5 — position and weather

sailwx.info

Track history (hours):
 
Tides and Currents Weather Stations Pressure Air Temp Water Temp Dewpoint Dewpoint Depression Visibility Wind Speed Wind Dir Waves Ship Positions

Maersk Danang

Last reported at 2017-May-12 21:39 UTC. Time now 2017-May-27 02:27 UTC.
Position N 26°19' W 078°27'.
Warning: this ship's position is 14 days out of date.

Length 294 m; draft 9.5 m.

Type: Ship. MMSI: 636091595.

Date/timePositionNaut miles runAvg speedWind from/ knotsBaromVisibWave heightAir tempDewpointWater temp
2017-May-12 21:39N 26°19' W 078°27'1216.4
2017-May-12 20:56N 26°24' W 078°38'716.3
2017-May-12 20:30N 26°27' W 078°46'4 7.8
2017-May-12 19:58N 26°31' W 078°46'0 0.1
2017-May-12 16:12N 26°32' W 078°46'0 0.0
2017-May-12 09:25N 26°31' W 078°46'3 4.5
2017-May-12 08:51N 26°29' W 078°47'0 0.4
2017-May-12 08:28N 26°29' W 078°48'5112.4
2017-May-12 04:20N 25°56' W 079°31'514.4
2017-May-12 04:00N 25°53' W 079°35'714.4
2017-May-12 03:30N 25°48' W 079°42'612.6
2017-May-12 03:00N 25°49' W 079°49'612.6
2017-May-12 02:30N 25°49' W 079°56'612.3
2017-May-12 02:00N 25°47' W 080°02'1 2.2
2017-May-12 01:30N 25°46' W 080°02'510.6
2017-May-12 01:00N 25°46' W 080°08'2 4.5
2017-May-12 00:30N 25°46' W 080°10'1 1.2
2017-May-11 23:58N 25°46' W 080°09'0 0.0
2017-May-11 23:28N 25°46' W 080°09'0 0.0
2017-May-11 22:58N 25°46' W 080°09'0 0.0
2017-May-11 22:28N 25°46' W 080°09'0 0.0
2017-May-11 21:58N 25°46' W 080°09'0 0.0
2017-May-11 21:28N 25°46' W 080°09'0 0.0
2017-May-11 20:58N 25°46' W 080°09'0 0.0
2017-May-11 20:28N 25°46' W 080°09'0 0.0
2017-May-11 19:58N 25°46' W 080°09'0 0.0
2017-May-11 19:28N 25°46' W 080°09'0 0.0
2017-May-11 18:58N 25°46' W 080°09'0 0.0
2017-May-11 18:28N 25°46' W 080°09'0 0.0
2017-May-11 17:58N 25°46' W 080°09'0 0.0
2017-May-11 17:28N 25°46' W 080°09'0 0.0
2017-May-11 16:58N 25°46' W 080°09'0 0.0
2017-May-11 16:28N 25°46' W 080°09'0 0.0
2017-May-11 15:58N 25°46' W 080°09'0 0.0
2017-May-11 15:28N 25°46' W 080°09'0 0.0
2017-May-11 14:58N 25°46' W 080°09'0 0.0
2017-May-11 14:28N 25°46' W 080°09'0 0.0
2017-May-11 13:28N 25°46' W 080°09'0 0.0
2017-May-11 12:58N 25°46' W 080°09'0 0.0
2017-May-11 12:28N 25°46' W 080°09'0 0.0
2017-May-11 11:58N 25°46' W 080°09'0 0.0
2017-May-11 11:28N 25°46' W 080°09'0 0.0
2017-May-11 10:58N 25°46' W 080°09'0 0.0
2017-May-11 10:28N 25°46' W 080°09'0 0.0
2017-May-11 09:58N 25°46' W 080°09'0 0.0
2017-May-11 09:28N 25°46' W 080°09'0 0.0
2017-May-11 08:58N 25°46' W 080°09'0 0.6
2017-May-11 08:30N 25°46' W 080°09'5 9.5
2017-May-11 08:00N 25°46' W 080°04'4 7.9
2017-May-11 07:30N 25°48' W 079°60'714.5
2017-May-11 07:00N 25°54' W 079°55'815.4
2017-May-11 06:30N 26°01' W 079°53'815.7
2017-May-11 06:00N 26°09' W 079°53'815.5
2017-May-11 05:30N 26°17' W 079°53'815.4
2017-May-11 05:00N 26°25' W 079°52'815.2
2017-May-11 04:30N 26°32' W 079°52'1314.9
2017-May-11 03:39N 26°45' W 079°52'214.6
2017-May-11 03:30N 26°47' W 079°51'714.5
2017-May-11 03:00N 26°54' W 079°51'714.3
2017-May-11 02:30N 27°01' W 079°51'714.3
2017-May-11 02:00N 27°08' W 079°51'914.5
2017-May-11 01:23N 27°18' W 079°51'614.6
2017-May-11 01:00N 27°23' W 079°51'714.5
2017-May-11 00:30N 27°30' W 079°51'714.6
2017-May-11 00:00N 27°38' W 079°50'714.5
2017-May-10 23:30N 27°45' W 079°51'20613.2
2017-May-10 07:53N 31°11' W 080°02'513.2
2017-May-10 07:30N 31°15' W 080°01'713.4
2017-May-10 07:00N 31°22' W 079°59'713.7
2017-May-10 06:30N 31°28' W 079°57'713.7
2017-May-10 06:00N 31°35' W 079°55'713.6
2017-May-10 05:30N 31°42' W 079°53'713.7
2017-May-10 05:00N 31°48' W 079°51'713.8
2017-May-10 04:30N 31°55' W 079°49'713.3
2017-May-10 04:00N 32°01' W 079°47'712.8
2017-May-10 03:30N 32°08' W 079°45'613.0
2017-May-10 03:00N 32°14' W 079°43'612.9
2017-May-10 02:30N 32°20' W 079°41'613.0
2017-May-10 02:00N 32°26' W 079°39'612.6
2017-May-10 01:30N 32°32' W 079°37'611.6
2017-May-10 01:00N 32°38' W 079°38'1113.5
2017-May-10 00:12N 32°44' W 079°49'315.1
2017-May-10 00:00N 32°45' W 079°52'5 0.3
2017-May-09 09:30N 32°50' W 079°53'0 0.2
2017-May-09 09:00N 32°50' W 079°54'3 6.0
2017-May-09 08:30N 32°47' W 079°55'611.6
2017-May-09 08:00N 32°44' W 079°49'714.8
2017-May-09 07:30N 32°40' W 079°42'611.9
2017-May-09 07:00N 32°38' W 079°35'3 5.9
2017-May-09 06:30N 32°38' W 079°32'0 0.3
2017-May-09 05:59N 32°38' W 079°32'0 0.0
2017-May-09 05:29N 32°38' W 079°32'0 0.0
2017-May-09 04:59N 32°38' W 079°32'  
2017-May-06 23:04N 36°51' W 075°52'112.7
2017-May-06 23:00N 36°52' W 075°52'612.6
2017-May-06 22:30N 36°56' W 075°58'611.5
2017-May-06 22:00N 36°58' W 076°05'815.6
2017-May-06 21:29N 37°00' W 076°15'610.1
2017-May-06 20:55N 36°57' W 076°20'3 7.6
2017-May-06 20:30N 36°53' W 076°20'1 2.1
2017-May-06 20:00N 36°53' W 076°21'0 0.0
2017-May-06 19:30N 36°53' W 076°21'0 0.0
2017-May-06 17:24N 36°53' W 076°21'0 0.0
2017-May-06 17:00N 36°53' W 076°21'0 0.0
2017-May-06 16:30N 36°53' W 076°21'0 0.0
2017-May-06 15:54N 36°53' W 076°21'0 0.0
2017-May-06 14:36N 36°53' W 076°21'0 0.0
2017-May-06 14:24N 36°53' W 076°21'0 0.0
2017-May-06 12:39N 36°53' W 076°21'0 0.0
2017-May-06 12:15N 36°53' W 076°21'0 0.0
2017-May-06 10:48N 36°53' W 076°21'0 0.0
2017-May-06 10:09N 36°53' W 076°21'0 0.0
2017-May-06 08:48N 36°53' W 076°21'0 0.0
2017-May-06 08:27N 36°53' W 076°21'0 0.0
2017-May-06 07:21N 36°53' W 076°21'0 0.0
2017-May-05 09:57N 36°53' W 076°21'0 0.6
2017-May-05 09:31N 36°53' W 076°21'2 4.0
2017-May-05 09:01N 36°55' W 076°20'4 7.4
2017-May-05 08:30N 36°58' W 076°20'814.1
2017-May-05 07:58N 36°60' W 076°11'817.6
2017-May-05 07:31N 36°57' W 076°01'5 9.5
2017-May-05 07:00N 36°56' W 075°55'3 6.4
2017-May-05 06:30N 36°54' W 075°52'3 7.0
2017-May-05 06:00N 36°52' W 075°48'710.0
2017-May-05 05:19N 36°53' W 075°40'8 0.5
2017-May-04 13:51N 36°49' W 075°49'412.3
2017-May-04 13:30N 36°46' W 075°45'15810.3
2017-May-03 22:15N 34°11' W 076°17'312.2
2017-May-03 22:00N 34°09' W 076°19'712.2
2017-May-03 21:25N 34°04' W 076°26'1012.4
2017-May-03 20:38N 33°58' W 076°35'211.8
2017-May-03 20:30N 33°57' W 076°37'612.6
2017-May-03 20:00N 33°53' W 076°43'712.6
2017-May-03 19:27N 33°49' W 076°49'21112.9
2017-May-03 03:05N 31°56' W 080°22'212.7
2017-May-03 02:56N 31°56' W 080°24'712.7
2017-May-03 02:22N 31°56' W 080°32'512.7
2017-May-03 02:00N 31°56' W 080°38'610.9
2017-May-03 01:30N 31°58' W 080°44'611.4
2017-May-03 01:00N 32°02' W 080°49'611.3
2017-May-03 00:30N 32°03' W 080°56'611.0
2017-May-03 00:00N 32°06' W 081°01'4 7.8
2017-May-02 23:30N 32°05' W 081°06'3 6.6
2017-May-02 23:00N 32°08' W 081°08'0 0.4
2017-May-02 22:27N 32°08' W 081°08'0 0.0
2017-May-02 21:57N 32°08' W 081°08'  
Track history (hours):
 
Tides and Currents Weather Stations Pressure Air Temp Water Temp Dewpoint Dewpoint Depression Visibility Wind Speed Wind Dir Waves Ship Positions

Maersk Danang

Last reported at 2017-May-12 21:39 UTC. Time now 2017-May-27 02:27 UTC.
Position N 26°19' W 078°27'.
Warning: this ship's position is 14 days out of date.

Length 294 m; draft 9.5 m.

Type: Ship. MMSI: 636091595.

Date/timePositionNaut miles runAvg speedWind from/ knotsBaromVisibWave heightAir tempDewpointWater temp
2017-May-12 21:39N 26°19' W 078°27'1216.4
2017-May-12 20:56N 26°24' W 078°38'716.3
2017-May-12 20:30N 26°27' W 078°46'4 7.8
2017-May-12 19:58N 26°31' W 078°46'0 0.1
2017-May-12 16:12N 26°32' W 078°46'0 0.0
2017-May-12 09:25N 26°31' W 078°46'3 4.5
2017-May-12 08:51N 26°29' W 078°47'0 0.4
2017-May-12 08:28N 26°29' W 078°48'5112.4
2017-May-12 04:20N 25°56' W 079°31'514.4
2017-May-12 04:00N 25°53' W 079°35'714.4
2017-May-12 03:30N 25°48' W 079°42'612.6
2017-May-12 03:00N 25°49' W 079°49'612.6
2017-May-12 02:30N 25°49' W 079°56'612.3
2017-May-12 02:00N 25°47' W 080°02'1 2.2
2017-May-12 01:30N 25°46' W 080°02'510.6
2017-May-12 01:00N 25°46' W 080°08'2 4.5
2017-May-12 00:30N 25°46' W 080°10'1 1.2
2017-May-11 23:58N 25°46' W 080°09'0 0.0
2017-May-11 23:28N 25°46' W 080°09'0 0.0
2017-May-11 22:58N 25°46' W 080°09'0 0.0
2017-May-11 22:28N 25°46' W 080°09'0 0.0
2017-May-11 21:58N 25°46' W 080°09'0 0.0
2017-May-11 21:28N 25°46' W 080°09'0 0.0
2017-May-11 20:58N 25°46' W 080°09'0 0.0
2017-May-11 20:28N 25°46' W 080°09'0 0.0
2017-May-11 19:58N 25°46' W 080°09'0 0.0
2017-May-11 19:28N 25°46' W 080°09'0 0.0
2017-May-11 18:58N 25°46' W 080°09'0 0.0
2017-May-11 18:28N 25°46' W 080°09'0 0.0
2017-May-11 17:58N 25°46' W 080°09'0 0.0
2017-May-11 17:28N 25°46' W 080°09'0 0.0
2017-May-11 16:58N 25°46' W 080°09'0 0.0
2017-May-11 16:28N 25°46' W 080°09'0 0.0
2017-May-11 15:58N 25°46' W 080°09'0 0.0
2017-May-11 15:28N 25°46' W 080°09'0 0.0
2017-May-11 14:58N 25°46' W 080°09'0 0.0
2017-May-11 14:28N 25°46' W 080°09'0 0.0
2017-May-11 13:28N 25°46' W 080°09'0 0.0
2017-May-11 12:58N 25°46' W 080°09'0 0.0
2017-May-11 12:28N 25°46' W 080°09'0 0.0
2017-May-11 11:58N 25°46' W 080°09'0 0.0
2017-May-11 11:28N 25°46' W 080°09'0 0.0
2017-May-11 10:58N 25°46' W 080°09'0 0.0
2017-May-11 10:28N 25°46' W 080°09'0 0.0
2017-May-11 09:58N 25°46' W 080°09'0 0.0
2017-May-11 09:28N 25°46' W 080°09'0 0.0
2017-May-11 08:58N 25°46' W 080°09'0 0.6
2017-May-11 08:30N 25°46' W 080°09'5 9.5
2017-May-11 08:00N 25°46' W 080°04'4 7.9
2017-May-11 07:30N 25°48' W 079°60'714.5
2017-May-11 07:00N 25°54' W 079°55'815.4
2017-May-11 06:30N 26°01' W 079°53'815.7
2017-May-11 06:00N 26°09' W 079°53'815.5
2017-May-11 05:30N 26°17' W 079°53'815.4
2017-May-11 05:00N 26°25' W 079°52'815.2
2017-May-11 04:30N 26°32' W 079°52'1314.9
2017-May-11 03:39N 26°45' W 079°52'214.6
2017-May-11 03:30N 26°47' W 079°51'714.5
2017-May-11 03:00N 26°54' W 079°51'714.3
2017-May-11 02:30N 27°01' W 079°51'714.3
2017-May-11 02:00N 27°08' W 079°51'914.5
2017-May-11 01:23N 27°18' W 079°51'614.6
2017-May-11 01:00N 27°23' W 079°51'714.5
2017-May-11 00:30N 27°30' W 079°51'714.6
2017-May-11 00:00N 27°38' W 079°50'714.5
2017-May-10 23:30N 27°45' W 079°51'20613.2
2017-May-10 07:53N 31°11' W 080°02'513.2
2017-May-10 07:30N 31°15' W 080°01'713.4
2017-May-10 07:00N 31°22' W 079°59'713.7
2017-May-10 06:30N 31°28' W 079°57'713.7
2017-May-10 06:00N 31°35' W 079°55'713.6
2017-May-10 05:30N 31°42' W 079°53'713.7
2017-May-10 05:00N 31°48' W 079°51'713.8
2017-May-10 04:30N 31°55' W 079°49'713.3
2017-May-10 04:00N 32°01' W 079°47'712.8
2017-May-10 03:30N 32°08' W 079°45'613.0
2017-May-10 03:00N 32°14' W 079°43'612.9
2017-May-10 02:30N 32°20' W 079°41'613.0
2017-May-10 02:00N 32°26' W 079°39'612.6
2017-May-10 01:30N 32°32' W 079°37'611.6
2017-May-10 01:00N 32°38' W 079°38'1113.5
2017-May-10 00:12N 32°44' W 079°49'315.1
2017-May-10 00:00N 32°45' W 079°52'5 0.3
2017-May-09 09:30N 32°50' W 079°53'0 0.2
2017-May-09 09:00N 32°50' W 079°54'3 6.0
2017-May-09 08:30N 32°47' W 079°55'611.6
2017-May-09 08:00N 32°44' W 079°49'714.8
2017-May-09 07:30N 32°40' W 079°42'611.9
2017-May-09 07:00N 32°38' W 079°35'3 5.9
2017-May-09 06:30N 32°38' W 079°32'0 0.3
2017-May-09 05:59N 32°38' W 079°32'0 0.0
2017-May-09 05:29N 32°38' W 079°32'0 0.0
2017-May-09 04:59N 32°38' W 079°32'  
2017-May-06 23:04N 36°51' W 075°52'112.7
2017-May-06 23:00N 36°52' W 075°52'612.6
2017-May-06 22:30N 36°56' W 075°58'611.5
2017-May-06 22:00N 36°58' W 076°05'815.6
2017-May-06 21:29N 37°00' W 076°15'610.1
2017-May-06 20:55N 36°57' W 076°20'3 7.6
2017-May-06 20:30N 36°53' W 076°20'1 2.1
2017-May-06 20:00N 36°53' W 076°21'0 0.0
2017-May-06 19:30N 36°53' W 076°21'0 0.0
2017-May-06 17:24N 36°53' W 076°21'0 0.0
2017-May-06 17:00N 36°53' W 076°21'0 0.0
2017-May-06 16:30N 36°53' W 076°21'0 0.0
2017-May-06 15:54N 36°53' W 076°21'0 0.0
2017-May-06 14:36N 36°53' W 076°21'0 0.0
2017-May-06 14:24N 36°53' W 076°21'0 0.0
2017-May-06 12:39N 36°53' W 076°21'0 0.0
2017-May-06 12:15N 36°53' W 076°21'0 0.0
2017-May-06 10:48N 36°53' W 076°21'0 0.0
2017-May-06 10:09N 36°53' W 076°21'0 0.0
2017-May-06 08:48N 36°53' W 076°21'0 0.0
2017-May-06 08:27N 36°53' W 076°21'0 0.0
2017-May-06 07:21N 36°53' W 076°21'0 0.0
2017-May-05 09:57N 36°53' W 076°21'0 0.6
2017-May-05 09:31N 36°53' W 076°21'2 4.0
2017-May-05 09:01N 36°55' W 076°20'4 7.4
2017-May-05 08:30N 36°58' W 076°20'814.1
2017-May-05 07:58N 36°60' W 076°11'817.6
2017-May-05 07:31N 36°57' W 076°01'5 9.5
2017-May-05 07:00N 36°56' W 075°55'3 6.4
2017-May-05 06:30N 36°54' W 075°52'3 7.0
2017-May-05 06:00N 36°52' W 075°48'710.0
2017-May-05 05:19N 36°53' W 075°40'8 0.5
2017-May-04 13:51N 36°49' W 075°49'412.3
2017-May-04 13:30N 36°46' W 075°45'15810.3
2017-May-03 22:15N 34°11' W 076°17'312.2
2017-May-03 22:00N 34°09' W 076°19'712.2
2017-May-03 21:25N 34°04' W 076°26'1012.4
2017-May-03 20:38N 33°58' W 076°35'211.8
2017-May-03 20:30N 33°57' W 076°37'612.6
2017-May-03 20:00N 33°53' W 076°43'712.6
2017-May-03 19:27N 33°49' W 076°49'21112.9
2017-May-03 03:05N 31°56' W 080°22'212.7
2017-May-03 02:56N 31°56' W 080°24'712.7
2017-May-03 02:22N 31°56' W 080°32'512.7
2017-May-03 02:00N 31°56' W 080°38'610.9
2017-May-03 01:30N 31°58' W 080°44'611.4
2017-May-03 01:00N 32°02' W 080°49'611.3
2017-May-03 00:30N 32°03' W 080°56'611.0
2017-May-03 00:00N 32°06' W 081°01'4 7.8
2017-May-02 23:30N 32°05' W 081°06'3 6.6
2017-May-02 23:00N 32°08' W 081°08'0 0.4
2017-May-02 22:27N 32°08' W 081°08'0 0.0
2017-May-02 21:57N 32°08' W 081°08'  

Dump ship's entire track history